createdAt,value
2022-11-09T00:01:32.958Z,8.08
2022-11-09T00:04:02.655Z,8.03
2022-11-09T00:06:32.224Z,7.99
2022-11-09T00:09:07.041Z,7.95
2022-11-09T00:11:36.510Z,7.89
2022-11-09T00:14:06.779Z,7.86
2022-11-09T00:16:34.884Z,7.83
2022-11-09T00:19:02.955Z,7.75
2022-11-09T00:21:31.068Z,7.72
2022-11-09T00:23:59.222Z,7.68
2022-11-09T00:26:27.532Z,7.67
2022-11-09T00:28:55.717Z,7.64
2022-11-09T00:31:25.916Z,7.54
2022-11-09T00:33:56.147Z,7.42
2022-11-09T00:36:25.636Z,7.41
2022-11-09T00:38:55.355Z,7.34
2022-11-09T00:41:24.431Z,7.35
2022-11-09T00:43:52.907Z,7.29
2022-11-09T00:46:21.804Z,7.23
2022-11-09T00:48:55.769Z,7.21
2022-11-09T00:51:23.975Z,7.21
2022-11-09T00:53:54.833Z,7.17
2022-11-09T00:56:24.542Z,7.15
2022-11-09T00:58:55.695Z,7.15
2022-11-09T01:01:24.278Z,7.17
2022-11-09T01:03:53.979Z,7.23
2022-11-09T01:06:24.912Z,7.21
2022-11-09T01:08:53.429Z,7.18
2022-11-09T01:11:23.459Z,7.17
2022-11-09T01:13:53.997Z,7.26
2022-11-09T01:16:23.892Z,7.28
2022-11-09T01:18:56.284Z,7.25
2022-11-09T01:21:25.766Z,7.30
2022-11-09T01:23:54.017Z,7.25
2022-11-09T01:26:22.576Z,7.16
2022-11-09T01:28:52.408Z,7.15
2022-11-09T01:31:21.884Z,7.21
2022-11-09T01:33:50.095Z,7.25
2022-11-09T01:36:22.053Z,7.27
2022-11-09T01:38:51.151Z,7.27
2022-11-09T01:41:21.543Z,7.22
2022-11-09T01:44:05.009Z,7.17
2022-11-09T01:46:38.389Z,7.05
2022-11-09T01:49:13.989Z,7.09
2022-11-09T01:51:49.253Z,7.09
2022-11-09T01:54:21.117Z,7.11
2022-11-09T01:56:53.171Z,7.06
2022-11-09T01:59:25.755Z,7.09
2022-11-09T02:01:55.073Z,7.15
2022-11-09T02:04:25.902Z,7.14
2022-11-09T02:06:58.155Z,7.12
2022-11-09T02:09:32.438Z,7.10
2022-11-09T02:12:01.226Z,7.11
2022-11-09T02:14:30.622Z,7.16
2022-11-09T02:16:58.410Z,7.11
2022-11-09T02:19:26.347Z,7.01
2022-11-09T02:21:55.988Z,7.02
2022-11-09T02:24:26.319Z,7.01
2022-11-09T02:26:54.723Z,7.00
2022-11-09T02:29:26.517Z,7.01
2022-11-09T02:31:58.478Z,6.94
2022-11-09T02:34:29.150Z,6.86
2022-11-09T02:37:00.366Z,6.93
2022-11-09T02:39:29.921Z,6.88
2022-11-09T02:42:03.408Z,6.82
2022-11-09T02:44:39.517Z,6.84
2022-11-09T02:47:09.095Z,6.88
2022-11-09T02:49:37.169Z,6.85
2022-11-09T02:52:06.587Z,6.82
2022-11-09T02:54:34.575Z,6.82
2022-11-09T02:57:02.668Z,6.85
2022-11-09T02:59:30.804Z,6.85
2022-11-09T03:01:59.320Z,6.87
2022-11-09T03:04:30.375Z,6.87
2022-11-09T03:06:59.048Z,6.82
2022-11-09T03:09:28.674Z,6.82
2022-11-09T03:11:57.841Z,6.77
2022-11-09T03:14:26.236Z,6.70
2022-11-09T03:16:58.363Z,6.75
2022-11-09T03:19:28.006Z,6.76
2022-11-09T03:21:56.117Z,6.72
2022-11-09T03:24:25.343Z,6.68
2022-11-09T03:26:58.725Z,6.66
2022-11-09T03:29:26.804Z,6.63
2022-11-09T03:31:56.549Z,6.62
2022-11-09T03:34:24.850Z,6.60
2022-11-09T03:36:52.962Z,6.63
2022-11-09T03:39:21.947Z,6.63
2022-11-09T03:41:49.977Z,6.59
2022-11-09T03:44:20.115Z,6.59
2022-11-09T03:46:48.277Z,6.54
2022-11-09T03:49:16.232Z,6.48
2022-11-09T03:51:44.214Z,6.58
2022-11-09T03:54:12.191Z,6.48
2022-11-09T03:56:40.181Z,6.47
2022-11-09T03:59:09.630Z,6.41
2022-11-09T04:01:39.050Z,6.34
2022-11-09T04:04:07.121Z,6.33
2022-11-09T04:06:35.201Z,6.44
2022-11-09T04:09:03.164Z,6.43
2022-11-09T04:11:31.123Z,6.37
2022-11-09T04:13:59.096Z,6.37
2022-11-09T04:16:27.062Z,6.43
2022-11-09T04:18:56.559Z,6.45
2022-11-09T04:21:24.571Z,6.43
2022-11-09T04:23:52.548Z,6.39
2022-11-09T04:26:20.469Z,6.42
2022-11-09T04:28:48.465Z,6.44
2022-11-09T04:31:16.365Z,6.48
2022-11-09T04:33:44.245Z,6.50
2022-11-09T04:36:13.642Z,6.47
2022-11-09T04:38:41.611Z,6.44
2022-11-09T04:41:09.538Z,6.41
2022-11-09T04:43:37.715Z,6.37
2022-11-09T04:46:06.076Z,6.38
2022-11-09T04:48:34.499Z,6.28
2022-11-09T04:51:02.975Z,6.22
2022-11-09T04:53:32.607Z,6.22
2022-11-09T04:56:00.687Z,6.24
2022-11-09T04:58:28.756Z,6.16
2022-11-09T05:01:02.493Z,6.21
2022-11-09T05:03:30.700Z,6.33
2022-11-09T05:05:58.927Z,6.25
2022-11-09T05:08:26.983Z,6.18
2022-11-09T05:10:58.787Z,6.11
2022-11-09T05:13:26.733Z,6.15
2022-11-09T05:15:54.872Z,6.07
2022-11-09T05:18:22.853Z,6.05
2022-11-09T05:20:50.754Z,6.12
2022-11-09T05:23:36.279Z,6.19
2022-11-09T05:26:05.695Z,6.09
2022-11-09T05:28:33.656Z,6.13
2022-11-09T05:31:01.623Z,6.17
2022-11-09T05:33:29.564Z,6.20
2022-11-09T05:35:58.251Z,6.21
2022-11-09T05:38:26.810Z,6.12
2022-11-09T05:40:55.631Z,6.16
2022-11-09T05:43:24.871Z,6.13
2022-11-09T05:45:52.594Z,6.17
2022-11-09T05:48:20.644Z,6.11
2022-11-09T05:50:48.592Z,6.13
2022-11-09T05:53:23.870Z,6.12
2022-11-09T05:55:52.247Z,6.15
2022-11-09T05:58:20.216Z,6.20
2022-11-09T06:00:49.706Z,6.14
2022-11-09T06:03:17.855Z,6.19
2022-11-09T06:05:47.540Z,6.23
2022-11-09T06:08:16.686Z,6.29
2022-11-09T06:10:44.545Z,6.32
2022-11-09T06:13:12.774Z,6.32
2022-11-09T06:15:40.717Z,6.30
2022-11-09T06:18:10.122Z,6.33
2022-11-09T06:20:38.037Z,6.41
2022-11-09T06:23:06.047Z,6.49
2022-11-09T06:25:34.313Z,6.70
2022-11-09T06:28:02.635Z,7.02
2022-11-09T06:30:31.077Z,7.11
2022-11-09T06:33:00.445Z,7.23
2022-11-09T06:35:30.487Z,7.57
2022-11-09T06:37:58.701Z,7.90
2022-11-09T06:40:27.160Z,8.30
2022-11-09T06:42:59.446Z,8.56
2022-11-09T06:45:28.929Z,8.55
2022-11-09T06:47:57.537Z,8.74
2022-11-09T06:50:25.455Z,8.89
2022-11-09T06:52:59.100Z,9.21
2022-11-09T06:55:27.982Z,9.63
2022-11-09T06:57:56.610Z,10.17
2022-11-09T07:00:25.901Z,10.66
2022-11-09T07:02:54.407Z,11.06
2022-11-09T07:05:22.771Z,11.58
2022-11-09T07:07:50.979Z,12.04
2022-11-09T07:10:20.539Z,12.33
2022-11-09T07:12:48.975Z,12.67
2022-11-09T07:15:18.466Z,12.81
2022-11-09T07:17:46.462Z,13.03
2022-11-09T07:20:15.179Z,13.23
2022-11-09T07:22:43.166Z,13.53
2022-11-09T07:25:12.922Z,13.63
2022-11-09T07:27:42.793Z,14.01
2022-11-09T07:30:11.856Z,14.17
2022-11-09T07:33:07.596Z,14.42
2022-11-09T07:35:28.417Z,14.79
2022-11-09T07:37:56.362Z,15.11
2022-11-09T07:40:24.321Z,15.07
2022-11-09T07:42:53.689Z,15.23
2022-11-09T07:45:21.636Z,15.59
2022-11-09T07:47:49.631Z,15.50
2022-11-09T07:50:17.771Z,15.39
2022-11-09T07:52:45.756Z,15.26
2022-11-09T07:55:13.771Z,15.16
2022-11-09T07:57:44.263Z,14.56
2022-11-09T08:00:15.616Z,14.65
2022-11-09T08:02:49.689Z,14.42
2022-11-09T08:05:17.987Z,14.33
2022-11-09T08:07:46.601Z,14.59
2022-11-09T08:10:14.947Z,14.95
2022-11-09T08:12:42.891Z,15.54
2022-11-09T08:15:13.037Z,15.29
2022-11-09T08:17:43.119Z,15.73
2022-11-09T08:20:15.477Z,16.21
2022-11-09T08:22:55.692Z,16.59
2022-11-09T08:25:25.320Z,16.91
2022-11-09T08:27:53.604Z,17.06
2022-11-09T08:30:23.301Z,17.40
2022-11-09T08:32:51.495Z,17.63
2022-11-09T08:35:27.619Z,17.80
2022-11-09T08:38:09.926Z,18.06
2022-11-09T08:40:38.113Z,18.33
2022-11-09T08:43:08.186Z,18.88
2022-11-09T08:45:38.970Z,19.13
2022-11-09T08:48:08.489Z,19.52
2022-11-09T08:50:37.729Z,19.92
2022-11-09T08:53:06.718Z,19.68
2022-11-09T08:55:34.916Z,20.22
2022-11-09T08:58:04.435Z,20.93
2022-11-09T09:00:32.856Z,20.81
2022-11-09T09:03:04.948Z,20.45
2022-11-09T09:05:33.042Z,20.84
2022-11-09T09:08:01.155Z,20.90
2022-11-09T09:10:29.251Z,20.92
2022-11-09T09:12:57.371Z,20.85
2022-11-09T09:15:25.663Z,20.88
2022-11-09T09:17:53.656Z,20.89
2022-11-09T09:20:23.041Z,21.07
2022-11-09T09:22:50.934Z,21.24
2022-11-09T09:25:19.082Z,21.26
2022-11-09T09:27:47.162Z,21.61
2022-11-09T09:30:15.333Z,21.33
2022-11-09T09:32:43.347Z,21.55
2022-11-09T09:35:11.771Z,22.12
2022-11-09T09:37:41.109Z,21.65
2022-11-09T09:40:21.892Z,22.20
2022-11-09T09:42:49.901Z,22.44
2022-11-09T09:45:21.342Z,22.62
2022-11-09T09:47:54.489Z,22.76
2022-11-09T09:50:26.336Z,23.05
2022-11-09T09:53:22.793Z,23.36
2022-11-09T09:55:54.429Z,23.36
2022-11-09T09:58:34.037Z,23.92
2022-11-09T10:01:23.590Z,23.94
2022-11-09T10:03:55.583Z,24.12
2022-11-09T10:07:02.277Z,24.54
2022-11-09T10:09:55.890Z,24.17
2022-11-09T10:12:34.844Z,24.41
2022-11-09T10:15:15.478Z,24.95
2022-11-09T10:17:59.559Z,24.76
2022-11-09T10:20:41.193Z,24.98
2022-11-09T10:23:28.361Z,25.05
2022-11-09T10:26:06.197Z,25.30
2022-11-09T10:29:09.086Z,25.08
2022-11-09T10:31:32.707Z,25.61
2022-11-09T10:34:09.331Z,25.22
2022-11-09T10:36:44.686Z,25.55
2022-11-09T10:39:16.200Z,25.25
2022-11-09T10:42:04.202Z,25.25
2022-11-09T10:44:50.691Z,25.22
2022-11-09T10:47:49.450Z,25.42
2022-11-09T10:50:39.644Z,24.91
2022-11-09T10:53:27.956Z,24.45
2022-11-09T10:56:20.945Z,25.01
2022-11-09T10:59:36.540Z,25.27
2022-11-09T11:02:47.128Z,26.40
2022-11-09T11:05:35.431Z,26.00
2022-11-09T11:08:32.942Z,25.77
2022-11-09T11:11:35.696Z,25.82
2022-11-09T11:14:31.062Z,26.03
2022-11-09T11:17:25.567Z,26.35
2022-11-09T11:20:31.585Z,25.93
2022-11-09T11:23:21.089Z,26.30
2022-11-09T11:26:24.990Z,26.50
2022-11-09T11:29:32.089Z,26.42
2022-11-09T11:32:20.477Z,26.44
2022-11-09T11:35:14.643Z,26.77
2022-11-09T11:38:11.474Z,27.10
2022-11-09T11:41:05.796Z,26.65
2022-11-09T11:44:00.566Z,27.02
2022-11-09T11:46:53.176Z,27.25
2022-11-09T11:50:03.132Z,27.22
2022-11-09T11:53:04.476Z,27.42
2022-11-09T11:56:04.566Z,27.34
2022-11-09T11:59:08.008Z,27.17
2022-11-09T12:02:19.142Z,27.22
2022-11-09T12:05:38.646Z,27.02
2022-11-09T12:08:36.424Z,26.72
2022-11-09T12:11:35.621Z,26.45
2022-11-09T12:14:34.203Z,26.63
2022-11-09T12:17:31.787Z,26.69
2022-11-09T12:20:29.912Z,26.54
2022-11-09T12:23:25.198Z,26.89
2022-11-09T12:26:24.036Z,26.68
2022-11-09T12:29:18.989Z,26.87
2022-11-09T12:32:18.945Z,26.79
2022-11-09T12:35:21.998Z,26.84
2022-11-09T12:38:14.099Z,26.91
2022-11-09T12:41:05.359Z,26.99
2022-11-09T12:43:56.030Z,26.82
2022-11-09T12:46:49.169Z,26.93
2022-11-09T12:49:38.131Z,26.93
2022-11-09T12:52:29.866Z,27.13
2022-11-09T12:55:18.448Z,27.15
2022-11-09T12:58:05.348Z,26.64
2022-11-09T13:00:54.972Z,27.02
2022-11-09T13:03:55.365Z,26.60
2022-11-09T13:07:29.142Z,26.39
2022-11-09T13:10:35.500Z,26.57
2022-11-09T13:13:24.957Z,26.59
2022-11-09T13:16:32.430Z,26.70
2022-11-09T13:19:54.220Z,25.38
2022-11-09T13:23:01.325Z,25.42
2022-11-09T13:25:53.013Z,25.55
2022-11-09T13:28:58.990Z,25.51
2022-11-09T13:32:25.499Z,25.45
2022-11-09T13:36:01.036Z,25.63
2022-11-09T13:38:48.887Z,25.85
2022-11-09T13:41:44.870Z,25.32
2022-11-09T13:44:34.543Z,25.20
2022-11-09T13:47:28.886Z,24.92
2022-11-09T13:50:20.669Z,25.24
2022-11-09T13:53:29.014Z,25.63
2022-11-09T13:56:27.034Z,25.38
2022-11-09T13:59:22.857Z,24.98
2022-11-09T14:02:20.174Z,24.42
2022-11-09T14:05:06.771Z,24.30
2022-11-09T14:07:54.786Z,24.30
2022-11-09T14:10:47.017Z,24.29
2022-11-09T14:13:47.725Z,24.18
2022-11-09T14:16:48.286Z,23.90
2022-11-09T14:19:45.968Z,23.73
2022-11-09T14:22:36.383Z,23.17
2022-11-09T14:25:25.351Z,22.79
2022-11-09T14:28:30.541Z,22.57
2022-11-09T14:31:24.927Z,22.10
2022-11-09T14:34:17.325Z,21.79
2022-11-09T14:37:06.551Z,21.67
2022-11-09T14:39:54.489Z,21.29
2022-11-09T14:42:46.041Z,21.21
2022-11-09T14:45:32.986Z,21.11
2022-11-09T14:48:20.843Z,20.82
2022-11-09T14:51:13.531Z,20.52
2022-11-09T14:54:01.681Z,20.53
2022-11-09T14:56:48.907Z,20.15
2022-11-09T14:59:37.064Z,20.07
2022-11-09T15:02:25.102Z,19.79
2022-11-09T15:05:30.841Z,19.58
2022-11-09T15:08:22.273Z,19.47
2022-11-09T15:11:09.472Z,19.27
2022-11-09T15:13:56.099Z,18.96
2022-11-09T15:16:42.925Z,18.59
2022-11-09T15:19:33.187Z,18.25
2022-11-09T15:22:48.161Z,18.28
2022-11-09T15:25:38.296Z,18.09
2022-11-09T15:28:26.804Z,17.87
2022-11-09T15:31:16.458Z,17.81
2022-11-09T15:34:03.378Z,17.71
2022-11-09T15:36:55.316Z,17.48
2022-11-09T15:39:41.970Z,17.36
2022-11-09T15:42:29.645Z,17.19
2022-11-09T15:45:17.373Z,17.15
2022-11-09T15:48:04.558Z,17.01
2022-11-09T15:50:51.508Z,16.91
2022-11-09T15:53:38.044Z,16.77
2022-11-09T15:56:25.638Z,16.69
2022-11-09T15:59:19.062Z,16.55
2022-11-09T16:02:05.894Z,16.48
2022-11-09T16:04:52.434Z,16.59
2022-11-09T16:07:38.781Z,16.52
2022-11-09T16:10:27.348Z,16.34
2022-11-09T16:13:13.617Z,16.36
2022-11-09T16:16:06.118Z,16.24
2022-11-09T16:18:52.660Z,16.04
2022-11-09T16:21:39.382Z,15.76
2022-11-09T16:24:25.860Z,15.62
2022-11-09T16:27:42.961Z,15.59
2022-11-09T16:30:19.163Z,15.43
2022-11-09T16:33:06.855Z,15.53
2022-11-09T16:35:54.393Z,15.35
2022-11-09T16:38:44.106Z,15.24
2022-11-09T16:41:31.838Z,15.14
2022-11-09T16:44:20.992Z,15.08
2022-11-09T16:47:08.798Z,14.93
2022-11-09T16:49:56.442Z,14.86
2022-11-09T16:52:42.775Z,14.88
2022-11-09T16:55:29.051Z,14.86
2022-11-09T16:58:15.456Z,14.86
2022-11-09T17:01:11.321Z,14.71
2022-11-09T17:03:58.846Z,14.67
2022-11-09T17:06:46.675Z,14.75
2022-11-09T17:09:34.491Z,14.51
2022-11-09T17:12:20.868Z,14.57
2022-11-09T17:15:08.366Z,14.73
2022-11-09T17:17:55.113Z,14.65
2022-11-09T17:20:44.832Z,14.52
2022-11-09T17:23:33.869Z,14.54
2022-11-09T17:26:21.213Z,14.36
2022-11-09T17:29:07.816Z,14.35
2022-11-09T17:31:54.533Z,14.17
2022-11-09T17:34:40.945Z,14.14
2022-11-09T17:37:28.557Z,14.21
2022-11-09T17:40:19.856Z,14.10
2022-11-09T17:43:07.135Z,13.99
2022-11-09T17:45:53.531Z,13.91
2022-11-09T17:48:41.248Z,13.78
2022-11-09T17:51:27.871Z,13.72
2022-11-09T17:54:15.100Z,13.72
2022-11-09T17:57:02.882Z,13.58
2022-11-09T17:59:49.467Z,13.56
2022-11-09T18:02:36.259Z,13.51
2022-11-09T18:05:22.709Z,13.44
2022-11-09T18:08:10.973Z,13.41
2022-11-09T18:10:59.344Z,13.40
2022-11-09T18:13:49.884Z,13.35
2022-11-09T18:16:36.078Z,13.33
2022-11-09T18:19:22.460Z,13.34
2022-11-09T18:22:12.676Z,13.42
2022-11-09T18:25:04.693Z,13.35
2022-11-09T18:27:59.788Z,13.34
2022-11-09T18:30:47.805Z,13.13
2022-11-09T18:33:34.811Z,13.10
2022-11-09T18:36:22.191Z,13.19
2022-11-09T18:39:08.945Z,12.98
2022-11-09T18:41:57.045Z,12.91
2022-11-09T18:44:43.328Z,12.97
2022-11-09T18:47:31.085Z,13.05
2022-11-09T18:50:19.535Z,13.03
2022-11-09T18:53:05.726Z,12.85
2022-11-09T18:55:52.763Z,12.78
2022-11-09T18:58:39.553Z,12.69
2022-11-09T19:01:27.534Z,12.62
2022-11-09T19:04:17.651Z,12.56
2022-11-09T19:07:04.410Z,12.62
2022-11-09T19:09:55.482Z,12.48
2022-11-09T19:12:43.276Z,12.59
2022-11-09T19:15:29.838Z,12.65
2022-11-09T19:18:16.687Z,12.53
2022-11-09T19:21:05.342Z,12.48
2022-11-09T19:23:52.047Z,12.41
2022-11-09T19:26:38.332Z,12.44
2022-11-09T19:29:24.739Z,12.32
2022-11-09T19:32:11.106Z,12.39
2022-11-09T19:34:57.198Z,12.26
2022-11-09T19:37:44.971Z,12.28
2022-11-09T19:40:36.935Z,12.30
2022-11-09T19:43:26.028Z,12.26
2022-11-09T19:46:12.216Z,12.27
2022-11-09T19:48:59.091Z,12.12
2022-11-09T19:51:45.446Z,12.19
2022-11-09T19:54:33.087Z,12.11
2022-11-09T19:57:25.955Z,12.08
2022-11-09T20:00:13.638Z,12.13
2022-11-09T20:03:00.222Z,12.03
2022-11-09T20:05:46.803Z,11.98
2022-11-09T20:08:33.847Z,12.02
2022-11-09T20:11:41.732Z,12.08
2022-11-09T20:14:28.282Z,12.11
2022-11-09T20:17:14.680Z,12.05
2022-11-09T20:20:00.966Z,12.07
2022-11-09T20:22:47.227Z,12.03
2022-11-09T20:25:33.853Z,11.99
2022-11-09T20:28:21.786Z,11.97
2022-11-09T20:31:10.063Z,12.00
2022-11-09T20:33:57.710Z,11.96
2022-11-09T20:36:44.081Z,11.95
2022-11-09T20:39:30.544Z,11.99
2022-11-09T20:42:17.145Z,11.97
2022-11-09T20:45:05.816Z,11.91
2022-11-09T20:48:10.680Z,11.91
2022-11-09T20:51:04.170Z,11.88
2022-11-09T20:53:50.763Z,11.87
2022-11-09T20:56:38.193Z,11.93
2022-11-09T20:59:24.522Z,11.86
2022-11-09T21:02:15.040Z,11.81
2022-11-09T21:05:02.506Z,11.78
2022-11-09T21:07:49.117Z,11.79
2022-11-09T21:10:36.455Z,11.88
2022-11-09T21:13:23.721Z,11.83
2022-11-09T21:16:12.890Z,11.72
2022-11-09T21:19:00.898Z,11.67
2022-11-09T21:21:47.487Z,11.69
2022-11-09T21:24:51.391Z,11.67
2022-11-09T21:27:56.330Z,11.62
2022-11-09T21:30:42.985Z,11.67
2022-11-09T21:33:29.551Z,11.69
2022-11-09T21:36:17.584Z,13.70
2022-11-09T21:39:04.938Z,12.63
2022-11-09T21:41:51.393Z,13.54
2022-11-09T21:44:37.887Z,14.20
2022-11-09T21:47:25.401Z,13.46
2022-11-09T21:50:13.011Z,12.64
2022-11-09T21:53:01.088Z,12.16
2022-11-09T21:55:47.714Z,11.88
2022-11-09T21:58:34.215Z,11.58
2022-11-09T22:01:21.730Z,11.36
2022-11-09T22:04:08.493Z,11.44
2022-11-09T22:06:54.914Z,11.26
2022-11-09T22:10:08.276Z,11.10
2022-11-09T22:13:06.979Z,10.91
2022-11-09T22:16:09.215Z,10.81
2022-11-09T22:19:13.179Z,10.83
2022-11-09T22:21:59.960Z,10.79
2022-11-09T22:24:47.657Z,10.74
2022-11-09T22:27:34.827Z,10.72
2022-11-09T22:30:21.601Z,10.70
2022-11-09T22:33:08.160Z,10.67
2022-11-09T22:35:55.315Z,10.76
2022-11-09T22:38:42.170Z,10.65
2022-11-09T22:41:29.929Z,10.64
2022-11-09T22:44:16.647Z,10.65
2022-11-09T22:47:03.366Z,10.62
2022-11-09T22:49:49.911Z,10.62
2022-11-09T22:52:36.878Z,10.63
2022-11-09T22:55:23.497Z,10.79
2022-11-09T22:58:11.653Z,10.84
2022-11-09T23:01:06.033Z,10.81
2022-11-09T23:03:53.111Z,10.72
2022-11-09T23:06:39.709Z,10.66
2022-11-09T23:09:26.688Z,10.59
2022-11-09T23:12:12.906Z,10.58
2022-11-09T23:15:06.753Z,10.60
2022-11-09T23:18:11.779Z,10.56
2022-11-09T23:21:00.615Z,10.61
2022-11-09T23:23:47.254Z,10.63
2022-11-09T23:26:34.959Z,10.61
2022-11-09T23:29:21.250Z,10.67
2022-11-09T23:32:09.243Z,10.59
2022-11-09T23:34:55.850Z,10.68
2022-11-09T23:37:42.252Z,10.71
2022-11-09T23:40:29.047Z,10.68
2022-11-09T23:43:16.298Z,10.50
2022-11-09T23:46:04.083Z,10.52
2022-11-09T23:48:51.752Z,10.50
2022-11-09T23:51:38.387Z,10.47
2022-11-09T23:54:24.703Z,10.46
2022-11-09T23:57:10.944Z,10.50
2022-11-09T23:59:57.330Z,10.52
